sensor_id;sensor_type;location;lat;lon;timestamp;pressure;altitude;pressure_sealevel;temperature;humidity
20955;BME280;10636;19.390;-99.256;2022-11-20T14:24:13;78341.63;;;21.56;44.74
20955;BME280;10636;19.390;-99.256;2022-11-20T14:26:43;78349.25;;;21.61;44.62
20955;BME280;10636;19.390;-99.256;2022-11-20T14:29:17;78350.88;;;21.66;44.80
20955;BME280;10636;19.390;-99.256;2022-11-20T14:31:48;78345.88;;;21.73;44.87
20955;BME280;10636;19.390;-99.256;2022-11-20T14:34:22;78364.31;;;21.80;44.94
20955;BME280;10636;19.390;-99.256;2022-11-20T14:36:55;78364.03;;;21.88;44.97
20955;BME280;10636;19.390;-99.256;2022-11-20T14:39:33;78364.47;;;21.96;44.66
20955;BME280;10636;19.390;-99.256;2022-11-20T14:42:10;78363.41;;;22.01;45.05
20955;BME280;10636;19.390;-99.256;2022-11-20T14:44:43;78361.06;;;22.07;44.48
20955;BME280;10636;19.390;-99.256;2022-11-20T14:47:14;78377.44;;;22.13;44.93
20955;BME280;10636;19.390;-99.256;2022-11-20T14:49:46;78373.59;;;22.16;44.95
20955;BME280;10636;19.390;-99.256;2022-11-20T14:52:16;78379.16;;;22.21;45.21
20955;BME280;10636;19.390;-99.256;2022-11-20T14:54:48;78380.63;;;22.24;44.96
20955;BME280;10636;19.390;-99.256;2022-11-20T14:57:23;78384.91;;;22.29;44.51
20955;BME280;10636;19.390;-99.256;2022-11-20T15:00:05;78389.88;;;22.34;44.66
20955;BME280;10636;19.390;-99.256;2022-11-20T15:02:38;78392.06;;;22.38;45.17
20955;BME280;10636;19.390;-99.256;2022-11-20T15:05:08;78396.13;;;22.39;44.33
20955;BME280;10636;19.390;-99.256;2022-11-20T15:07:38;78400.31;;;22.42;44.77
20955;BME280;10636;19.390;-99.256;2022-11-20T15:10:21;78400.41;;;22.44;44.14
20955;BME280;10636;19.390;-99.256;2022-11-20T15:12:51;78400.50;;;22.46;44.44
20955;BME280;10636;19.390;-99.256;2022-11-20T15:15:23;78396.56;;;22.47;44.54
20955;BME280;10636;19.390;-99.256;2022-11-20T15:17:53;78405.38;;;22.50;44.50
20955;BME280;10636;19.390;-99.256;2022-11-20T15:20:25;78402.81;;;22.52;44.10
20955;BME280;10636;19.390;-99.256;2022-11-20T15:22:57;78390.84;;;22.53;44.33
20955;BME280;10636;19.390;-99.256;2022-11-20T15:25:28;78400.94;;;22.54;44.46
20955;BME280;10636;19.390;-99.256;2022-11-20T15:27:57;78392.91;;;22.54;44.06
20955;BME280;10636;19.390;-99.256;2022-11-20T15:30:26;78405.53;;;22.65;44.66
20955;BME280;10636;19.390;-99.256;2022-11-20T15:32:55;78398.88;;;22.66;44.82
20955;BME280;10636;19.390;-99.256;2022-11-20T15:35:23;78402.84;;;22.65;44.24
20955;BME280;10636;19.390;-99.256;2022-11-20T15:37:52;78406.00;;;22.62;44.06
20955;BME280;10636;19.390;-99.256;2022-11-20T15:40:21;78403.91;;;22.60;44.03
20955;BME280;10636;19.390;-99.256;2022-11-20T15:42:51;78411.25;;;22.60;44.00
20955;BME280;10636;19.390;-99.256;2022-11-20T15:45:38;78413.22;;;22.59;44.81
20955;BME280;10636;19.390;-99.256;2022-11-20T15:48:11;78416.50;;;22.58;44.22
20955;BME280;10636;19.390;-99.256;2022-11-20T15:50:46;78415.81;;;22.57;44.56
20955;BME280;10636;19.390;-99.256;2022-11-20T15:53:17;78427.19;;;22.58;44.64
20955;BME280;10636;19.390;-99.256;2022-11-20T15:55:46;78419.75;;;22.56;43.97
20955;BME280;10636;19.390;-99.256;2022-11-20T15:58:17;78426.28;;;22.53;44.42
20955;BME280;10636;19.390;-99.256;2022-11-20T16:00:46;78423.81;;;22.57;43.98
20955;BME280;10636;19.390;-99.256;2022-11-20T16:03:15;78421.16;;;22.57;44.80
20955;BME280;10636;19.390;-99.256;2022-11-20T16:05:44;78418.34;;;22.55;44.72
20955;BME280;10636;19.390;-99.256;2022-11-20T16:08:13;78419.06;;;22.56;44.17
20955;BME280;10636;19.390;-99.256;2022-11-20T16:10:42;78413.69;;;22.56;44.50
20955;BME280;10636;19.390;-99.256;2022-11-20T16:13:14;78422.91;;;22.53;44.66
20955;BME280;10636;19.390;-99.256;2022-11-20T16:16:04;78419.66;;;22.54;43.79
20955;BME280;10636;19.390;-99.256;2022-11-20T16:18:34;78419.22;;;22.46;44.04
20955;BME280;10636;19.390;-99.256;2022-11-20T16:21:03;78419.75;;;22.56;43.85
20955;BME280;10636;19.390;-99.256;2022-11-20T16:23:32;78423.59;;;22.53;44.23
20955;BME280;10636;19.390;-99.256;2022-11-20T16:26:09;78422.78;;;22.51;44.18
20955;BME280;10636;19.390;-99.256;2022-11-20T16:28:38;78422.00;;;22.48;44.03
20955;BME280;10636;19.390;-99.256;2022-11-20T16:31:13;78413.97;;;22.48;43.57
20955;BME280;10636;19.390;-99.256;2022-11-20T16:33:43;78420.25;;;22.53;43.92
20955;BME280;10636;19.390;-99.256;2022-11-20T16:36:17;78416.38;;;22.56;44.08
20955;BME280;10636;19.390;-99.256;2022-11-20T16:38:46;78414.41;;;22.56;43.91
20955;BME280;10636;19.390;-99.256;2022-11-20T16:41:15;78409.16;;;22.58;43.26
20955;BME280;10636;19.390;-99.256;2022-11-20T16:43:48;78409.97;;;22.61;43.27
20955;BME280;10636;19.390;-99.256;2022-11-20T16:46:19;78407.50;;;22.65;43.34
20955;BME280;10636;19.390;-99.256;2022-11-20T16:48:53;78405.72;;;22.69;43.84
20955;BME280;10636;19.390;-99.256;2022-11-20T16:51:23;78405.81;;;22.71;43.12
20955;BME280;10636;19.390;-99.256;2022-11-20T16:53:52;78395.25;;;22.74;43.66
20955;BME280;10636;19.390;-99.256;2022-11-20T16:56:22;78386.16;;;22.79;43.37
20955;BME280;10636;19.390;-99.256;2022-11-20T16:58:53;78386.78;;;22.91;43.46
20955;BME280;10636;19.390;-99.256;2022-11-20T17:01:24;78367.53;;;22.81;43.26
20955;BME280;10636;19.390;-99.256;2022-11-20T17:03:55;78386.69;;;23.03;43.39
20955;BME280;10636;19.390;-99.256;2022-11-20T17:06:26;78383.53;;;23.06;43.33
20955;BME280;10636;19.390;-99.256;2022-11-20T17:08:55;78380.38;;;23.10;43.51
20955;BME280;10636;19.390;-99.256;2022-11-20T17:11:25;78379.66;;;23.09;42.73
20955;BME280;10636;19.390;-99.256;2022-11-20T17:13:55;78375.72;;;23.10;42.85
20955;BME280;10636;19.390;-99.256;2022-11-20T17:16:27;78376.63;;;23.15;42.75
20955;BME280;10636;19.390;-99.256;2022-11-20T17:18:57;78354.31;;;23.10;42.67
20955;BME280;10636;19.390;-99.256;2022-11-20T17:21:26;78368.47;;;23.13;42.72
20955;BME280;10636;19.390;-99.256;2022-11-20T17:23:58;78365.72;;;23.11;42.63
20955;BME280;10636;19.390;-99.256;2022-11-20T17:26:27;78365.03;;;23.10;42.63
20955;BME280;10636;19.390;-99.256;2022-11-20T17:28:57;78358.88;;;23.08;42.71
20955;BME280;10636;19.390;-99.256;2022-11-20T17:31:29;78358.09;;;23.05;42.72
20955;BME280;10636;19.390;-99.256;2022-11-20T17:33:59;78357.41;;;23.05;42.06
20955;BME280;10636;19.390;-99.256;2022-11-20T17:36:28;78343.91;;;23.03;42.24
20955;BME280;10636;19.390;-99.256;2022-11-20T17:38:58;78340.53;;;23.02;42.08
20955;BME280;10636;19.390;-99.256;2022-11-20T17:41:28;78345.09;;;23.00;42.23
20955;BME280;10636;19.390;-99.256;2022-11-20T17:43:58;78334.97;;;22.98;42.73
20955;BME280;10636;19.390;-99.256;2022-11-20T17:46:30;78330.91;;;22.97;41.89
20955;BME280;10636;19.390;-99.256;2022-11-20T17:49:00;78328.72;;;22.93;42.60
20955;BME280;10636;19.390;-99.256;2022-11-20T17:51:30;78314.47;;;22.89;42.10
20955;BME280;10636;19.390;-99.256;2022-11-20T17:54:02;78310.53;;;22.90;42.41
20955;BME280;10636;19.390;-99.256;2022-11-20T17:56:31;78318.63;;;22.92;42.85
20955;BME280;10636;19.390;-99.256;2022-11-20T17:59:17;78309.59;;;22.85;42.24
20955;BME280;10636;19.390;-99.256;2022-11-20T18:01:48;78318.31;;;22.86;41.91
20955;BME280;10636;19.390;-99.256;2022-11-20T18:04:17;78308.91;;;22.85;41.90
20955;BME280;10636;19.390;-99.256;2022-11-20T18:06:46;78303.53;;;22.71;42.20
20955;BME280;10636;19.390;-99.256;2022-11-20T18:09:15;78307.59;;;22.72;42.37
20955;BME280;10636;19.390;-99.256;2022-11-20T18:11:44;78288.97;;;22.60;42.29
20955;BME280;10636;19.390;-99.256;2022-11-20T18:14:15;78295.91;;;22.65;42.79
20955;BME280;10636;19.390;-99.256;2022-11-20T18:17:05;78281.06;;;22.62;42.76
20955;BME280;10636;19.390;-99.256;2022-11-20T18:19:36;78276.28;;;22.61;42.93
20955;BME280;10636;19.390;-99.256;2022-11-20T18:22:05;78274.81;;;22.58;42.91
20955;BME280;10636;19.390;-99.256;2022-11-20T18:24:35;78273.31;;;22.55;42.55
20955;BME280;10636;19.390;-99.256;2022-11-20T18:27:06;78260.13;;;22.45;41.99
20955;BME280;10636;19.390;-99.256;2022-11-20T18:29:35;78271.53;;;22.45;42.32
20955;BME280;10636;19.390;-99.256;2022-11-20T18:32:06;78258.47;;;22.38;42.82
20955;BME280;10636;19.390;-99.256;2022-11-20T18:34:34;78259.44;;;22.44;42.68
20955;BME280;10636;19.390;-99.256;2022-11-20T18:37:04;78252.03;;;22.43;42.23
20955;BME280;10636;19.390;-99.256;2022-11-20T18:39:35;78245.47;;;22.46;42.16
20955;BME280;10636;19.390;-99.256;2022-11-20T18:42:10;78229.06;;;22.38;42.51
20955;BME280;10636;19.390;-99.256;2022-11-20T18:44:56;78232.50;;;22.40;42.26
20955;BME280;10636;19.390;-99.256;2022-11-20T18:47:29;78229.16;;;22.40;43.17
20955;BME280;10636;19.390;-99.256;2022-11-20T18:50:00;78231.25;;;22.41;42.15
20955;BME280;10636;19.390;-99.256;2022-11-20T18:52:30;78237.16;;;22.40;42.43
20955;BME280;10636;19.390;-99.256;2022-11-20T18:55:01;78233.41;;;22.45;43.04
20955;BME280;10636;19.390;-99.256;2022-11-20T18:57:30;78218.66;;;22.44;42.93
20955;BME280;10636;19.390;-99.256;2022-11-20T18:59:59;78221.34;;;22.44;42.53
20955;BME280;10636;19.390;-99.256;2022-11-20T19:02:29;78219.28;;;22.42;42.84
20955;BME280;10636;19.390;-99.256;2022-11-20T19:04:58;78215.09;;;22.39;42.87
20955;BME280;10636;19.390;-99.256;2022-11-20T19:07:27;78195.41;;;22.33;41.89
20955;BME280;10636;19.390;-99.256;2022-11-20T19:09:56;78198.06;;;22.33;42.03
20955;BME280;10636;19.390;-99.256;2022-11-20T19:12:25;78192.34;;;22.38;42.51
20955;BME280;10636;19.390;-99.256;2022-11-20T19:14:54;78180.16;;;22.35;41.89
20955;BME280;10636;19.390;-99.256;2022-11-20T19:17:23;78189.06;;;22.40;42.06
20955;BME280;10636;19.390;-99.256;2022-11-20T19:19:53;78167.31;;;22.32;41.42
20955;BME280;10636;19.390;-99.256;2022-11-20T19:22:22;78172.94;;;22.38;41.50
20955;BME280;10636;19.390;-99.256;2022-11-20T19:24:51;78163.94;;;22.31;41.66
20955;BME280;10636;19.390;-99.256;2022-11-20T19:27:20;78162.66;;;22.32;42.42
20955;BME280;10636;19.390;-99.256;2022-11-20T19:29:49;78154.16;;;22.36;41.82
20955;BME280;10636;19.390;-99.256;2022-11-20T19:32:18;78150.19;;;22.37;42.41
20955;BME280;10636;19.390;-99.256;2022-11-20T19:34:47;78143.56;;;22.38;41.58
20955;BME280;10636;19.390;-99.256;2022-11-20T19:37:17;78144.25;;;22.38;42.36
20955;BME280;10636;19.390;-99.256;2022-11-20T19:39:46;78139.69;;;22.41;41.82
20955;BME280;10636;19.390;-99.256;2022-11-20T19:42:15;78131.47;;;22.37;41.47
20955;BME280;10636;19.390;-99.256;2022-11-20T19:44:43;78118.91;;;22.39;41.51
20955;BME280;10636;19.390;-99.256;2022-11-20T19:47:12;78132.06;;;22.49;42.05
20955;BME280;10636;19.390;-99.256;2022-11-20T19:49:41;78135.41;;;22.50;41.39
20955;BME280;10636;19.390;-99.256;2022-11-20T19:52:10;78129.31;;;22.47;41.59
20955;BME280;10636;19.390;-99.256;2022-11-20T19:54:40;78121.28;;;22.47;41.50
20955;BME280;10636;19.390;-99.256;2022-11-20T19:57:10;78120.19;;;22.52;41.86
20955;BME280;10636;19.390;-99.256;2022-11-20T19:59:38;78110.47;;;22.45;41.59
20955;BME280;10636;19.390;-99.256;2022-11-20T20:02:10;78110.59;;;22.47;41.58
20955;BME280;10636;19.390;-99.256;2022-11-20T20:04:39;78112.06;;;22.50;41.74
20955;BME280;10636;19.390;-99.256;2022-11-20T20:07:07;78106.72;;;22.50;42.07
20955;BME280;10636;19.390;-99.256;2022-11-20T20:09:36;78100.69;;;22.50;41.36
20955;BME280;10636;19.390;-99.256;2022-11-20T20:12:07;78098.13;;;22.52;41.29
20955;BME280;10636;19.390;-99.256;2022-11-20T20:14:35;78098.81;;;22.52;41.78
20955;BME280;10636;19.390;-99.256;2022-11-20T20:17:04;78093.34;;;22.50;41.72
20955;BME280;10636;19.390;-99.256;2022-11-20T20:19:33;78097.91;;;22.48;41.58
20955;BME280;10636;19.390;-99.256;2022-11-20T20:22:02;78087.22;;;22.48;41.23
20955;BME280;10636;19.390;-99.256;2022-11-20T20:24:31;78079.41;;;22.38;42.09
20955;BME280;10636;19.390;-99.256;2022-11-20T20:27:00;78086.25;;;22.41;42.14
20955;BME280;10636;19.390;-99.256;2022-11-20T20:29:30;78085.94;;;22.35;42.16
20955;BME280;10636;19.390;-99.256;2022-11-20T20:31:59;78086.16;;;22.39;42.54
20955;BME280;10636;19.390;-99.256;2022-11-20T20:34:28;78076.47;;;22.32;42.18
20955;BME280;10636;19.390;-99.256;2022-11-20T20:36:57;78072.00;;;22.36;42.70
20955;BME280;10636;19.390;-99.256;2022-11-20T20:39:26;78076.66;;;22.36;42.75
20955;BME280;10636;19.390;-99.256;2022-11-20T20:41:55;78064.97;;;22.29;41.84
20955;BME280;10636;19.390;-99.256;2022-11-20T20:44:24;78071.91;;;22.34;41.94
20955;BME280;10636;19.390;-99.256;2022-11-20T20:47:23;78074.69;;;22.36;42.93
20955;BME280;10636;19.390;-99.256;2022-11-20T20:49:52;78061.22;;;22.34;42.93
20955;BME280;10636;19.390;-99.256;2022-11-20T20:52:20;78065.56;;;22.28;42.94
20955;BME280;10636;19.390;-99.256;2022-11-20T20:54:52;78065.09;;;22.31;42.43
20955;BME280;10636;19.390;-99.256;2022-11-20T20:57:22;78061.72;;;22.31;42.33
20955;BME280;10636;19.390;-99.256;2022-11-20T20:59:51;78048.47;;;22.19;43.05
20955;BME280;10636;19.390;-99.256;2022-11-20T21:02:22;78047.09;;;22.18;42.52
20955;BME280;10636;19.390;-99.256;2022-11-20T21:04:51;78046.41;;;22.17;42.37
20955;BME280;10636;19.390;-99.256;2022-11-20T21:07:20;78050.34;;;22.16;42.51
20955;BME280;10636;19.390;-99.256;2022-11-20T21:09:49;78054.81;;;22.26;42.26
20955;BME280;10636;19.390;-99.256;2022-11-20T21:12:18;78054.81;;;22.26;42.57
20955;BME280;10636;19.390;-99.256;2022-11-20T21:14:47;78053.41;;;22.25;42.58
20955;BME280;10636;19.390;-99.256;2022-11-20T21:17:16;78062.63;;;22.22;42.25
20955;BME280;10636;19.390;-99.256;2022-11-20T21:19:46;78040.75;;;22.11;43.04
20955;BME280;10636;19.390;-99.256;2022-11-20T21:22:15;78033.91;;;22.08;42.65
20955;BME280;10636;19.390;-99.256;2022-11-20T21:24:42;78047.41;;;22.10;43.11
20955;BME280;10636;19.390;-99.256;2022-11-20T21:27:11;78042.75;;;22.11;42.79
20955;BME280;10636;19.390;-99.256;2022-11-20T21:29:40;78032.31;;;22.03;42.54
20955;BME280;10636;19.390;-99.256;2022-11-20T21:32:09;78028.28;;;22.02;43.14
20955;BME280;10636;19.390;-99.256;2022-11-20T21:34:38;78028.09;;;21.98;43.01
20955;BME280;10636;19.390;-99.256;2022-11-20T21:37:08;78041.03;;;22.04;43.58
20955;BME280;10636;19.390;-99.256;2022-11-20T21:39:37;78044.78;;;21.99;43.46
20955;BME280;10636;19.390;-99.256;2022-11-20T21:42:16;78043.94;;;21.94;44.17
20955;BME280;10636;19.390;-99.256;2022-11-20T21:44:45;78043.72;;;21.90;44.51
20955;BME280;10636;19.390;-99.256;2022-11-20T21:47:14;78038.28;;;21.88;45.39
20955;BME280;10636;19.390;-99.256;2022-11-20T21:49:43;78050.84;;;21.85;45.20
20955;BME280;10636;19.390;-99.256;2022-11-20T21:52:14;78045.03;;;21.89;45.31
20955;BME280;10636;19.390;-99.256;2022-11-20T21:54:43;78039.16;;;21.92;45.33
20955;BME280;10636;19.390;-99.256;2022-11-20T21:57:12;78031.63;;;22.03;44.88
20955;BME280;10636;19.390;-99.256;2022-11-20T21:59:41;78033.81;;;22.06;44.82
20955;BME280;10636;19.390;-99.256;2022-11-20T22:02:11;78031.53;;;22.14;44.67
20955;BME280;10636;19.390;-99.256;2022-11-20T22:04:41;78027.00;;;22.17;44.95
20955;BME280;10636;19.390;-99.256;2022-11-20T22:07:10;78033.31;;;22.24;44.94
20955;BME280;10636;19.390;-99.256;2022-11-20T22:09:40;78031.03;;;22.32;44.46
20955;BME280;10636;19.390;-99.256;2022-11-20T22:12:10;78032.34;;;22.31;44.91
20955;BME280;10636;19.390;-99.256;2022-11-20T22:14:39;78029.06;;;22.32;44.34
20955;BME280;10636;19.390;-99.256;2022-11-20T22:17:12;78024.59;;;22.37;44.24
20955;BME280;10636;19.390;-99.256;2022-11-20T22:19:41;78025.97;;;22.38;44.32
20955;BME280;10636;19.390;-99.256;2022-11-20T22:22:10;78030.31;;;22.45;44.66
20955;BME280;10636;19.390;-99.256;2022-11-20T22:24:41;78028.25;;;22.43;44.34
20955;BME280;10636;19.390;-99.256;2022-11-20T22:27:10;78029.13;;;22.48;44.22
20955;BME280;10636;19.390;-99.256;2022-11-20T22:29:38;78030.50;;;22.49;44.71
20955;BME280;10636;19.390;-99.256;2022-11-20T22:32:07;78019.81;;;22.49;44.17
20955;BME280;10636;19.390;-99.256;2022-11-20T22:34:36;78018.63;;;22.52;44.33
20955;BME280;10636;19.390;-99.256;2022-11-20T22:37:05;78021.38;;;22.54;44.82
20955;BME280;10636;19.390;-99.256;2022-11-20T22:39:34;78019.81;;;22.49;44.03
20955;BME280;10636;19.390;-99.256;2022-11-20T22:42:05;78020.00;;;22.53;44.05
20955;BME280;10636;19.390;-99.256;2022-11-20T22:44:34;78022.19;;;22.57;44.09
20955;BME280;10636;19.390;-99.256;2022-11-20T22:47:03;78023.03;;;22.61;44.30
20955;BME280;10636;19.390;-99.256;2022-11-20T22:49:32;78010.34;;;22.62;44.15
20955;BME280;10636;19.390;-99.256;2022-11-20T22:52:00;78017.09;;;22.63;44.32
20955;BME280;10636;19.390;-99.256;2022-11-20T22:54:29;78017.78;;;22.63;43.95
20955;BME280;10636;19.390;-99.256;2022-11-20T22:56:58;77994.66;;;22.54;43.83
20955;BME280;10636;19.390;-99.256;2022-11-20T22:59:28;78005.72;;;22.62;43.76
20955;BME280;10636;19.390;-99.256;2022-11-20T23:01:58;78004.25;;;22.59;43.47
20955;BME280;10636;19.390;-99.256;2022-11-20T23:04:26;78000.88;;;22.59;43.77
20955;BME280;10636;19.390;-99.256;2022-11-20T23:06:55;78009.84;;;22.65;43.10
20955;BME280;10636;19.390;-99.256;2022-11-20T23:09:24;78009.97;;;22.67;43.12
20955;BME280;10636;19.390;-99.256;2022-11-20T23:11:53;77999.66;;;22.62;43.63
20955;BME280;10636;19.390;-99.256;2022-11-20T23:14:22;78013.81;;;22.64;43.47
20955;BME280;10636;19.390;-99.256;2022-11-20T23:16:53;78009.84;;;22.65;43.38
20955;BME280;10636;19.390;-99.256;2022-11-20T23:19:21;78019.19;;;22.64;43.15
20955;BME280;10636;19.390;-99.256;2022-11-20T23:21:50;78024.78;;;22.70;43.39
20955;BME280;10636;19.390;-99.256;2022-11-20T23:24:19;78024.88;;;22.73;43.50
20955;BME280;10636;19.390;-99.256;2022-11-20T23:26:47;78030.41;;;22.77;43.00
20955;BME280;10636;19.390;-99.256;2022-11-20T23:29:16;78031.63;;;22.74;43.38
20955;BME280;10636;19.390;-99.256;2022-11-20T23:31:45;78032.22;;;22.72;43.49
20955;BME280;10636;19.390;-99.256;2022-11-20T23:34:16;78025.59;;;22.73;43.39
20955;BME280;10636;19.390;-99.256;2022-11-20T23:36:45;78043.28;;;22.80;43.50
20955;BME280;10636;19.390;-99.256;2022-11-20T23:39:14;78034.19;;;22.71;42.77
20955;BME280;10636;19.390;-99.256;2022-11-20T23:41:42;78045.66;;;22.88;43.27
20955;BME280;10636;19.390;-99.256;2022-11-20T23:44:11;78041.50;;;22.85;43.05
20955;BME280;10636;19.390;-99.256;2022-11-20T23:46:40;78048.44;;;22.90;42.86
20955;BME280;10636;19.390;-99.256;2022-11-20T23:49:09;78057.63;;;22.87;42.72
20955;BME280;10636;19.390;-99.256;2022-11-20T23:51:39;78066.31;;;22.87;43.36
20955;BME280;10636;19.390;-99.256;2022-11-20T23:54:08;78059.59;;;22.86;43.37
20955;BME280;10636;19.390;-99.256;2022-11-20T23:56:37;78058.72;;;22.82;43.19
20955;BME280;10636;19.390;-99.256;2022-11-20T23:59:06;78063.88;;;22.78;43.56
